Time;durP1;ratioP1;P1;durP2;ratioP2;P2;SDS_P1;SDS_P2;PMS_P1;PMS_P2;Temp;Humidity;BMP_temperature;BMP_pressure;BME280_temperature;BME280_humidity;BME280_pressure;Samples;Min_cycle;Max_cycle;Signal;HPM_P1;HPM_P2
2021/11/03 00:02:22;;;;;;;18.12;9.18;;;;;;;13.89;100.00;100102.52;1816839;77;21121;-63
2021/11/03 00:04:49;;;;;;;14.98;8.85;;;;;;;13.86;100.00;100098.66;1813674;77;21037;-63
2021/11/03 00:07:17;;;;;;;17.15;9.68;;;;;;;13.84;100.00;100097.89;1809999;77;21656;-64
2021/11/03 00:09:43;;;;;;;15.43;9.30;;;;;;;13.82;100.00;100086.34;1798892;77;21432;-65
2021/11/03 00:12:11;;;;;;;15.78;9.75;;;;;;;13.81;100.00;100094.00;1813981;77;21067;-64
2021/11/03 00:14:38;;;;;;;17.95;10.48;;;;;;;13.78;100.00;100103.61;1807067;77;21874;-66
2021/11/03 00:17:05;;;;;;;19.40;9.05;;;;;;;13.73;100.00;100107.95;1810717;77;22504;-57
2021/11/03 00:19:34;;;;;;;19.12;9.68;;;;;;;13.73;100.00;100117.38;1808976;77;21101;-57
2021/11/03 00:22:00;;;;;;;25.15;10.05;;;;;;;13.70;100.00;100121.10;1806846;77;21113;-56
2021/11/03 00:24:27;;;;;;;18.70;10.20;;;;;;;13.68;100.00;100121.67;1808760;77;21019;-57
2021/11/03 00:26:53;;;;;;;16.85;9.78;;;;;;;13.69;100.00;100121.18;1804313;77;22004;-62
2021/11/03 00:29:20;;;;;;;17.80;9.38;;;;;;;13.68;100.00;100117.64;1809462;77;22113;-56
2021/11/03 00:31:47;;;;;;;18.57;9.88;;;;;;;13.67;100.00;100114.55;1798972;77;20975;-63
2021/11/03 00:34:13;;;;;;;17.45;8.78;;;;;;;13.70;100.00;100121.10;1816286;77;21080;-56
2021/11/03 00:36:40;;;;;;;18.40;9.60;;;;;;;13.69;100.00;100120.72;1811721;77;21044;-63
2021/11/03 00:39:07;;;;;;;17.10;9.80;;;;;;;13.70;100.00;100121.56;1800649;77;21084;-56
2021/11/03 00:41:34;;;;;;;18.87;10.35;;;;;;;13.67;100.00;100117.24;1812924;77;20973;-56
2021/11/03 00:44:01;;;;;;;19.70;10.82;;;;;;;13.65;100.00;100107.05;1806332;77;21562;-56
2021/11/03 00:46:28;;;;;;;23.07;10.35;;;;;;;13.67;100.00;100121.29;1806746;77;21031;-56
2021/11/03 00:48:55;;;;;;;15.98;10.05;;;;;;;13.69;100.00;100121.18;1809222;77;21042;-55
2021/11/03 00:51:21;;;;;;;17.85;10.58;;;;;;;13.70;100.00;100110.33;1796219;77;21100;-56
2021/11/03 00:53:49;;;;;;;19.42;11.30;;;;;;;13.70;100.00;100116.18;1817633;77;20992;-57
2021/11/03 00:56:17;;;;;;;21.68;11.40;;;;;;;13.76;100.00;100110.45;1810392;77;21030;-57
2021/11/03 00:58:43;;;;;;;21.27;11.60;;;;;;;13.80;100.00;100112.47;1800935;77;21626;-56
2021/11/03 01:01:10;;;;;;;24.00;11.68;;;;;;;13.83;100.00;100116.36;1796221;77;21050;-56
2021/11/03 01:03:38;;;;;;;19.20;11.65;;;;;;;13.85;100.00;100121.17;1810808;77;21931;-55
2021/11/03 01:06:05;;;;;;;23.07;12.68;;;;;;;13.88;100.00;100129.07;1808230;77;21018;-56
2021/11/03 01:08:32;;;;;;;25.60;11.65;;;;;;;13.90;100.00;100126.66;1797254;77;21085;-56
2021/11/03 01:10:59;;;;;;;28.00;12.37;;;;;;;13.90;100.00;100132.55;1799561;77;21077;-56
2021/11/03 01:13:27;;;;;;;25.08;12.23;;;;;;;13.92;100.00;100134.66;1802385;77;21016;-56
2021/11/03 01:15:57;;;;;;;23.35;12.43;;;;;;;13.93;100.00;100135.05;1811869;77;21940;-56
2021/11/03 01:18:28;;;;;;;22.52;13.38;;;;;;;13.95;100.00;100138.52;1810713;77;21072;-56
2021/11/03 01:20:54;;;;;;;23.73;12.98;;;;;;;13.98;100.00;100141.03;1809522;77;21008;-56
2021/11/03 01:23:21;;;;;;;20.45;12.88;;;;;;;13.99;100.00;100141.42;1815731;77;21038;-56
2021/11/03 01:25:48;;;;;;;22.32;13.48;;;;;;;14.02;100.00;100154.70;1814366;77;21098;-56
2021/11/03 01:28:14;;;;;;;26.60;13.50;;;;;;;14.03;100.00;100148.36;1803555;77;21776;-55
2021/11/03 01:30:41;;;;;;;23.90;13.70;;;;;;;14.04;100.00;100151.47;1794790;77;21488;-57
2021/11/03 01:33:08;;;;;;;24.20;13.38;;;;;;;14.04;100.00;100152.81;1815002;77;21037;-58
2021/11/03 01:35:35;;;;;;;25.30;15.05;;;;;;;14.06;100.00;100150.52;1817244;77;20996;-57
2021/11/03 01:38:02;;;;;;;26.52;14.28;;;;;;;14.02;100.00;100150.66;1789482;79;21094;-57
2021/11/03 01:40:35;;;;;;;21.90;13.72;;;;;;;14.02;100.00;100157.41;1805959;77;21127;-56
2021/11/03 01:43:03;;;;;;;29.52;14.73;;;;;;;14.03;100.00;100159.14;1806929;77;21462;-56
2021/11/03 01:45:30;;;;;;;23.80;14.38;;;;;;;14.03;100.00;100165.87;1809059;77;21021;-55
2021/11/03 01:48:02;;;;;;;29.37;15.60;;;;;;;14.01;100.00;100173.19;1807411;77;21078;-55
2021/11/03 01:50:44;;;;;;;26.10;15.23;;;;;;;14.00;100.00;100164.71;1803646;77;21614;-56
2021/11/03 01:53:25;;;;;;;31.35;15.98;;;;;;;14.02;100.00;100170.03;1813978;77;21107;-58
2021/11/03 01:56:05;;;;;;;32.30;16.70;;;;;;;14.04;100.00;100168.98;1789611;77;21067;-57
2021/11/03 01:58:56;;;;;;;28.47;16.48;;;;;;;14.03;100.00;100167.22;1817536;77;21061;-57
2021/11/03 02:01:25;;;;;;;27.27;16.48;;;;;;;14.00;100.00;100167.41;1818767;77;21569;-58
2021/11/03 02:03:52;;;;;;;32.45;16.67;;;;;;;14.03;100.00;100160.98;1802537;77;21496;-57
2021/11/03 02:06:23;;;;;;;28.67;15.43;;;;;;;14.05;100.00;100168.49;1806250;77;21511;-56
2021/11/03 02:08:51;;;;;;;29.15;16.42;;;;;;;14.01;100.00;100169.64;1816451;77;21450;-56
2021/11/03 02:11:19;;;;;;;29.10;16.55;;;;;;;13.97;100.00;100177.02;1811670;77;21093;-56
2021/11/03 02:13:46;;;;;;;30.40;17.40;;;;;;;13.97;100.00;100178.38;1806052;77;21390;-56
2021/11/03 02:16:16;;;;;;;31.52;18.00;;;;;;;13.95;100.00;100181.64;1808528;77;21574;-56
2021/11/03 02:18:42;;;;;;;32.10;18.35;;;;;;;13.92;100.00;100176.43;1814487;77;21780;-57
2021/11/03 02:21:26;;;;;;;31.35;17.95;;;;;;;13.90;100.00;100178.34;1815227;77;21066;-56
2021/11/03 02:24:17;;;;;;;32.10;19.50;;;;;;;13.88;100.00;100177.08;1817959;77;21520;-58
2021/11/03 02:26:47;;;;;;;31.97;18.90;;;;;;;13.87;100.00;100186.62;1813082;77;21129;-57
2021/11/03 02:29:17;;;;;;;35.00;19.25;;;;;;;13.85;100.00;100193.92;1814381;77;20989;-56
2021/11/03 02:31:51;;;;;;;39.23;20.60;;;;;;;13.81;100.00;100185.60;1816268;77;21797;-55
2021/11/03 02:34:26;;;;;;;30.60;18.92;;;;;;;13.76;100.00;100200.70;1801617;78;21531;-55
2021/11/03 02:37:00;;;;;;;36.42;20.75;;;;;;;13.73;100.00;100200.39;1821421;77;20997;-56
2021/11/03 02:39:35;;;;;;;34.53;19.23;;;;;;;13.74;100.00;100200.78;1818913;77;21029;-55
2021/11/03 02:42:02;;;;;;;34.45;20.05;;;;;;;13.73;100.00;100201.73;1804076;76;21453;-56
2021/11/03 02:44:29;;;;;;;34.60;20.90;;;;;;;13.70;100.00;100209.11;1810381;77;21995;-55
2021/11/03 02:46:56;;;;;;;35.78;21.95;;;;;;;13.66;100.00;100209.78;1806416;77;21218;-56
2021/11/03 02:49:22;;;;;;;37.42;21.30;;;;;;;13.63;100.00;100214.01;1807941;77;21030;-56
2021/11/03 02:51:49;;;;;;;37.25;21.55;;;;;;;13.60;100.00;100224.95;1819460;77;20979;-57
2021/11/03 02:54:21;;;;;;;31.45;19.98;;;;;;;13.58;100.00;100224.14;1819682;76;21054;-56
2021/11/03 02:56:53;;;;;;;37.55;21.55;;;;;;;13.56;100.00;100226.06;1808777;77;21101;-56
2021/11/03 02:59:25;;;;;;;35.68;21.42;;;;;;;13.55;100.00;100232.40;1826618;77;21146;-56
2021/11/03 03:01:57;;;;;;;36.13;21.60;;;;;;;13.52;100.00;100233.92;1816154;77;21104;-55
2021/11/03 03:04:31;;;;;;;34.43;21.40;;;;;;;13.49;100.00;100234.98;1797242;77;21073;-56
2021/11/03 03:06:58;;;;;;;35.75;22.25;;;;;;;13.43;100.00;100233.49;1812958;77;21022;-57
2021/11/03 03:09:24;;;;;;;36.00;21.35;;;;;;;13.40;100.00;100240.36;1811436;77;21113;-55
2021/11/03 03:11:57;;;;;;;38.92;22.42;;;;;;;13.36;100.00;100240.11;1813186;77;21792;-56
2021/11/03 03:14:28;;;;;;;37.08;22.73;;;;;;;13.32;100.00;100242.59;1811336;77;21490;-57
2021/11/03 03:16:55;;;;;;;35.65;21.65;;;;;;;13.31;100.00;100240.84;1811611;77;21030;-56
2021/11/03 03:19:22;;;;;;;38.13;21.25;;;;;;;13.32;100.00;100243.94;1808076;77;21447;-56
2021/11/03 03:21:49;;;;;;;39.50;23.18;;;;;;;13.34;100.00;100248.75;1799704;77;21356;-56
2021/11/03 03:24:17;;;;;;;38.05;21.87;;;;;;;13.34;100.00;100254.14;1814221;77;21075;-55
2021/11/03 03:26:44;;;;;;;37.05;22.15;;;;;;;13.32;100.00;100249.31;1810251;77;21740;-56
2021/11/03 03:29:11;;;;;;;39.08;22.95;;;;;;;13.30;100.00;100257.50;1809222;77;21140;-56
2021/11/03 03:31:38;;;;;;;34.73;23.15;;;;;;;13.29;100.00;100261.60;1809197;77;21041;-63
2021/11/03 03:34:09;;;;;;;37.53;23.02;;;;;;;13.30;100.00;100272.77;1790648;78;21817;-55
2021/11/03 03:36:37;;;;;;;36.35;22.32;;;;;;;13.26;100.00;100280.62;1798960;79;21073;-57
2021/11/03 03:39:07;;;;;;;33.42;22.42;;;;;;;13.25;100.00;100285.61;1806956;77;21026;-56
2021/11/03 03:41:34;;;;;;;35.28;23.90;;;;;;;13.24;100.00;100279.83;1816726;77;21441;-57
2021/11/03 03:44:03;;;;;;;43.15;24.98;;;;;;;13.21;100.00;100280.86;1810894;77;21049;-57
2021/11/03 03:46:32;;;;;;;41.00;24.27;;;;;;;13.18;100.00;100279.22;1811256;77;21117;-56
2021/11/03 03:48:59;;;;;;;38.88;24.98;;;;;;;13.16;100.00;100281.59;1804040;77;21018;-56
2021/11/03 03:51:26;;;;;;;37.73;23.42;;;;;;;13.14;100.00;100283.00;1815192;77;20966;-62
2021/11/03 03:53:53;;;;;;;41.23;22.95;;;;;;;13.13;100.00;100280.41;1813186;77;21341;-57
2021/11/03 03:56:22;;;;;;;40.35;24.52;;;;;;;13.09;100.00;100277.00;1811459;77;21106;-61
2021/11/03 03:58:50;;;;;;;42.33;24.72;;;;;;;13.07;100.00;100281.59;1811431;77;21113;-62
2021/11/03 04:01:20;;;;;;;37.20;23.50;;;;;;;13.07;100.00;100281.59;1814403;77;21028;-63
2021/11/03 04:03:47;;;;;;;38.95;24.60;;;;;;;13.04;100.00;100282.65;1813485;77;20928;-63
2021/11/03 04:06:14;;;;;;;36.65;23.42;;;;;;;13.02;100.00;100280.48;1811310;77;21064;-63
2021/11/03 04:08:42;;;;;;;40.63;25.48;;;;;;;13.01;100.00;100283.27;1812091;77;21590;-63
2021/11/03 04:11:09;;;;;;;39.63;23.52;;;;;;;13.01;100.00;100288.66;1801769;77;21689;-63
2021/11/03 04:13:38;;;;;;;40.35;24.43;;;;;;;12.98;100.00;100284.30;1817890;77;21496;-63
2021/11/03 04:16:06;;;;;;;37.48;23.50;;;;;;;12.93;100.00;100289.52;1812737;77;21260;-63
2021/11/03 04:18:33;;;;;;;39.30;24.87;;;;;;;12.88;100.00;100295.16;1809435;77;22200;-56
2021/11/03 04:21:00;;;;;;;42.60;25.35;;;;;;;12.80;100.00;100295.55;1807089;77;21097;-63
2021/11/03 04:23:27;;;;;;;42.95;25.32;;;;;;;12.71;100.00;100302.73;1825680;77;21118;-63
2021/11/03 04:25:56;;;;;;;40.85;25.62;;;;;;;12.64;100.00;100301.31;1807758;77;21090;-63
2021/11/03 04:28:22;;;;;;;41.05;26.12;;;;;;;12.55;100.00;100299.50;1805113;77;21006;-64
2021/11/03 04:30:50;;;;;;;43.20;25.30;;;;;;;12.51;100.00;100302.41;1812869;77;21008;-62
2021/11/03 04:33:19;;;;;;;42.03;24.85;;;;;;;12.46;100.00;100301.29;1799293;77;21128;-62
2021/11/03 04:35:47;;;;;;;41.20;25.37;;;;;;;12.41;100.00;100300.20;1819870;77;21113;-62
2021/11/03 04:38:15;;;;;;;40.58;26.27;;;;;;;12.34;100.00;100303.27;1787781;78;21539;-63
2021/11/03 04:40:42;;;;;;;49.15;27.17;;;;;;;12.26;100.00;100309.86;1804893;77;21018;-63
2021/11/03 04:43:09;;;;;;;42.65;26.73;;;;;;;12.19;100.00;100316.50;1813917;77;21437;-63
2021/11/03 04:45:36;;;;;;;45.28;26.65;;;;;;;12.13;100.00;100321.69;1817930;77;21046;-62
2021/11/03 04:48:04;;;;;;;40.33;25.97;;;;;;;12.07;100.00;100321.14;1814237;77;21169;-62
2021/11/03 04:50:31;;;;;;;42.25;25.25;;;;;;;12.01;100.00;100327.18;1814097;77;21139;-63
2021/11/03 04:52:58;;;;;;;43.95;26.85;;;;;;;11.98;100.00;100334.02;1797942;77;20996;-62
2021/11/03 04:55:25;;;;;;;46.42;26.93;;;;;;;11.99;100.00;100341.13;1811978;77;21042;-63
2021/11/03 04:57:53;;;;;;;46.75;27.40;;;;;;;11.98;100.00;100333.16;1814132;77;21053;-62
2021/11/03 05:00:27;;;;;;;45.55;27.22;;;;;;;11.96;100.00;100341.28;1814030;77;21808;-56
2021/11/03 05:02:55;;;;;;;43.23;25.97;;;;;;;11.96;100.00;100345.80;1807572;77;21462;-56
2021/11/03 05:05:23;;;;;;;47.30;27.45;;;;;;;11.96;100.00;100348.48;1804184;77;21202;-56
2021/11/03 05:07:50;;;;;;;45.60;27.15;;;;;;;11.97;100.00;100348.39;1811685;77;20959;-56
2021/11/03 05:10:17;;;;;;;42.75;26.73;;;;;;;12.00;100.00;100352.77;1813124;77;21029;-57
2021/11/03 05:12:45;;;;;;;45.03;27.02;;;;;;;12.04;100.00;100355.25;1814027;77;21080;-56
2021/11/03 05:15:12;;;;;;;41.40;25.60;;;;;;;12.09;100.00;100350.15;1820281;77;21022;-58
2021/11/03 05:17:40;;;;;;;41.30;25.72;;;;;;;12.12;100.00;100355.37;1811823;77;20998;-56
2021/11/03 05:20:09;;;;;;;43.13;24.85;;;;;;;12.16;100.00;100356.96;1813281;77;21090;-57
2021/11/03 05:22:36;;;;;;;39.08;24.32;;;;;;;12.24;100.00;100367.34;1810558;77;21098;-55
2021/11/03 05:25:05;;;;;;;41.55;25.37;;;;;;;12.26;100.00;100370.34;1801597;77;21708;-56
2021/11/03 05:27:33;;;;;;;39.83;23.98;;;;;;;12.26;100.00;100377.06;1804901;77;21075;-56
2021/11/03 05:30:00;;;;;;;39.78;23.65;;;;;;;12.31;100.00;100376.84;1808980;77;20999;-56
2021/11/03 05:32:27;;;;;;;38.35;23.90;;;;;;;12.34;100.00;100382.07;1810056;77;21019;-64
2021/11/03 05:34:53;;;;;;;40.60;24.43;;;;;;;12.40;100.00;100384.95;1821205;77;20987;-64
2021/11/03 05:37:20;;;;;;;37.88;24.05;;;;;;;12.45;100.00;100395.88;1812816;77;21161;-63
2021/11/03 05:39:47;;;;;;;40.40;25.17;;;;;;;12.51;100.00;100398.75;1811401;77;20996;-63
2021/11/03 05:42:15;;;;;;;45.73;25.17;;;;;;;12.60;100.00;100405.01;1807792;77;21305;-64
2021/11/03 05:44:42;;;;;;;37.70;24.25;;;;;;;12.71;100.00;100413.01;1818418;77;21045;-64
2021/11/03 05:47:10;;;;;;;39.65;24.02;;;;;;;12.83;100.00;100416.45;1815771;77;21083;-64
2021/11/03 05:49:36;;;;;;;39.70;24.32;;;;;;;12.90;100.00;100421.91;1794660;77;21054;-64
2021/11/03 05:52:04;;;;;;;43.63;26.35;;;;;;;12.93;100.00;100425.39;1817347;77;21078;-64
2021/11/03 05:54:31;;;;;;;39.13;23.80;;;;;;;12.94;100.00;100430.70;1810596;77;21049;-64
2021/11/03 05:57:00;;;;;;;42.03;25.97;;;;;;;12.96;99.97;100438.23;1803826;77;21467;-63
2021/11/03 05:59:26;;;;;;;41.10;25.68;;;;;;;12.91;99.17;100429.52;1814076;77;21031;-64
2021/11/03 06:01:53;;;;;;;43.63;26.52;;;;;;;12.87;98.49;100445.42;1807929;77;21122;-64
2021/11/03 06:04:19;;;;;;;44.03;26.23;;;;;;;12.84;98.11;100455.85;1813442;77;21054;-64
2021/11/03 06:06:46;;;;;;;40.08;25.45;;;;;;;12.80;98.06;100456.95;1823104;77;21521;-64
2021/11/03 06:09:12;;;;;;;41.25;25.37;;;;;;;12.83;98.05;100460.84;1808359;77;21648;-62
2021/11/03 06:11:42;;;;;;;43.00;24.98;;;;;;;12.88;97.84;100470.03;1808723;77;21386;-63
2021/11/03 06:14:10;;;;;;;40.10;24.25;;;;;;;12.93;97.65;100461.72;1814890;77;21103;-63
2021/11/03 06:16:38;;;;;;;42.13;24.98;;;;;;;13.01;97.22;100478.38;1809192;77;21034;-64
2021/11/03 06:19:05;;;;;;;38.35;24.72;;;;;;;13.07;96.75;100479.41;1814630;77;21033;-63
2021/11/03 06:21:32;;;;;;;38.23;24.47;;;;;;;13.12;96.03;100485.42;1819118;77;21042;-64
2021/11/03 06:24:00;;;;;;;39.00;24.72;;;;;;;13.13;95.45;100494.38;1807261;77;21033;-63
2021/11/03 06:26:27;;;;;;;38.45;25.32;;;;;;;13.18;95.19;100491.87;1809261;77;21124;-63
2021/11/03 06:28:53;;;;;;;39.08;25.57;;;;;;;13.23;94.42;100502.88;1809300;77;21613;-63
2021/11/03 06:31:20;;;;;;;37.20;23.90;;;;;;;13.24;94.11;100505.96;1814420;77;21046;-63
2021/11/03 06:33:46;;;;;;;39.95;24.92;;;;;;;13.27;93.85;100508.03;1807032;77;21022;-63
2021/11/03 06:36:14;;;;;;;39.18;24.60;;;;;;;13.27;93.41;100515.22;1822837;77;21029;-64
2021/11/03 06:38:41;;;;;;;39.10;25.05;;;;;;;13.28;93.01;100519.66;1817590;77;21499;-63
2021/11/03 06:41:10;;;;;;;39.03;24.60;;;;;;;13.21;92.35;100515.05;1803415;77;21079;-63
2021/11/03 06:43:38;;;;;;;39.83;25.55;;;;;;;13.16;92.33;100511.72;1803419;77;20908;-64
2021/11/03 06:46:06;;;;;;;41.48;26.35;;;;;;;13.15;92.15;100508.17;1817793;77;21030;-63
2021/11/03 06:48:32;;;;;;;37.42;23.52;;;;;;;13.15;92.06;100512.21;1808459;77;21763;-63
2021/11/03 06:50:59;;;;;;;39.10;24.18;;;;;;;13.18;91.81;100516.09;1810779;77;21081;-64
2021/11/03 06:53:27;;;;;;;38.38;23.98;;;;;;;13.22;91.56;100518.63;1811098;77;21660;-63
2021/11/03 06:55:54;;;;;;;41.05;24.52;;;;;;;13.23;91.52;100518.53;1812755;77;21492;-63
2021/11/03 06:58:22;;;;;;;38.28;25.17;;;;;;;13.29;91.43;100518.70;1823091;77;21479;-63
2021/11/03 07:00:51;;;;;;;39.45;25.62;;;;;;;13.31;91.30;100516.81;1816758;76;21089;-65
2021/11/03 07:03:21;;;;;;;35.38;23.10;;;;;;;13.33;91.25;100522.98;1819167;77;21198;-64
2021/11/03 07:05:50;;;;;;;38.58;24.45;;;;;;;13.34;91.22;100523.38;1820915;77;21037;-64
2021/11/03 07:08:17;;;;;;;39.35;24.18;;;;;;;13.38;91.32;100523.65;1819528;77;21051;-65
2021/11/03 07:10:47;;;;;;;39.67;25.65;;;;;;;13.45;90.90;100531.84;1768303;79;21003;-64
2021/11/03 07:13:14;;;;;;;36.95;23.87;;;;;;;13.55;90.71;100542.13;1759289;80;21084;-64
2021/11/03 07:15:42;;;;;;;39.20;25.62;;;;;;;13.62;90.25;100536.84;1827730;77;21752;-64
2021/11/03 07:18:09;;;;;;;39.35;24.32;;;;;;;13.68;89.84;100534.29;1821251;77;21067;-58
2021/11/03 07:20:36;;;;;;;39.58;25.23;;;;;;;13.72;89.38;100535.41;1813940;77;21077;-58
2021/11/03 07:23:04;;;;;;;35.45;23.25;;;;;;;13.75;88.69;100541.13;1819362;77;21046;-58
2021/11/03 07:25:33;;;;;;;38.28;23.95;;;;;;;13.74;88.46;100540.23;1821749;77;21046;-58
2021/11/03 07:28:00;;;;;;;45.45;25.50;;;;;;;13.79;88.41;100540.47;1818800;77;21350;-63
2021/11/03 07:30:31;;;;;;;36.75;23.50;;;;;;;13.87;88.08;100542.31;1821080;77;21100;-57
2021/11/03 07:32:58;;;;;;;36.98;23.50;;;;;;;13.93;87.56;100541.13;1824075;77;21502;-58
2021/11/03 07:35:25;;;;;;;34.98;22.70;;;;;;;14.00;87.24;100538.00;1792481;78;21464;-57
2021/11/03 07:37:52;;;;;;;35.40;23.62;;;;;;;14.09;86.97;100537.13;1791024;78;21136;-58
2021/11/03 07:40:22;;;;;;;36.23;24.05;;;;;;;14.14;86.40;100520.23;1757769;78;22303;-58
2021/11/03 07:42:50;;;;;;;36.50;23.18;;;;;;;14.17;86.20;100522.30;1792462;78;20895;-57
2021/11/03 07:45:17;;;;;;;36.50;24.37;;;;;;;14.27;85.67;100531.22;1801682;78;21078;-57
2021/11/03 07:47:44;;;;;;;34.83;23.27;;;;;;;14.35;84.81;100532.16;1817923;77;21500;-57
2021/11/03 07:50:18;;;;;;;33.35;21.90;;;;;;;14.41;84.29;100541.25;1787280;78;21400;-57
2021/11/03 07:52:45;;;;;;;33.98;22.07;;;;;;;14.48;83.77;100549.42;1780144;78;21112;-57
2021/11/03 07:55:11;;;;;;;31.87;20.43;;;;;;;14.55;83.42;100549.48;1781148;78;21578;-59
2021/11/03 07:57:39;;;;;;;36.28;21.27;;;;;;;14.63;82.67;100545.01;1783366;78;22045;-57
2021/11/03 08:00:08;;;;;;;35.75;22.40;;;;;;;14.68;82.37;100548.78;1815331;77;21039;-57
2021/11/03 08:02:37;;;;;;;32.90;21.68;;;;;;;14.76;81.86;100539.83;1818674;77;20915;-58
2021/11/03 08:05:06;;;;;;;35.83;23.30;;;;;;;14.82;81.30;100546.22;1817005;77;21009;-57
2021/11/03 08:07:33;;;;;;;35.15;22.80;;;;;;;14.88;81.19;100544.52;1816424;77;21045;-57
2021/11/03 08:10:01;;;;;;;30.88;20.70;;;;;;;14.94;80.45;100546.50;1815513;77;21074;-57
2021/11/03 08:12:27;;;;;;;33.08;21.55;;;;;;;14.96;80.35;100547.28;1810366;77;21059;-57
2021/11/03 08:14:54;;;;;;;35.33;21.55;;;;;;;15.01;80.04;100551.94;1743761;80;21083;-57
2021/11/03 08:17:25;;;;;;;31.42;21.68;;;;;;;15.07;79.80;100555.63;1810903;77;21114;-57
2021/11/03 08:19:56;;;;;;;33.15;21.75;;;;;;;15.14;79.83;100566.95;1811130;77;21402;-58
2021/11/03 08:22:24;;;;;;;34.08;21.68;;;;;;;15.20;79.48;100568.44;1808606;77;21030;-57
2021/11/03 08:24:53;;;;;;;29.52;20.92;;;;;;;15.27;79.25;100580.62;1808276;77;21122;-58
2021/11/03 08:27:22;;;;;;;31.05;21.42;;;;;;;15.34;79.05;100577.95;1812457;77;21588;-58
2021/11/03 08:29:51;;;;;;;29.35;19.98;;;;;;;15.45;78.55;100585.42;1806256;77;22098;-57
2021/11/03 08:32:24;;;;;;;28.00;19.52;;;;;;;15.54;78.32;100592.13;1799402;77;21421;-56
2021/11/03 08:34:53;;;;;;;29.72;20.48;;;;;;;15.60;78.14;100599.40;1747426;80;21018;-60
2021/11/03 08:37:28;;;;;;;32.45;21.87;;;;;;;15.67;77.63;100603.97;1780709;79;21051;-56
2021/11/03 08:39:55;;;;;;;30.05;21.80;;;;;;;15.72;77.45;100603.21;1784311;77;21045;-56
2021/11/03 08:42:22;;;;;;;32.45;21.33;;;;;;;15.79;77.35;100605.54;1809773;77;21171;-56
2021/11/03 08:44:51;;;;;;;30.80;21.02;;;;;;;15.83;76.92;100611.18;1809351;77;21151;-58
2021/11/03 08:47:18;;;;;;;30.65;20.25;;;;;;;15.89;76.53;100617.59;1811611;77;21106;-58
2021/11/03 08:49:46;;;;;;;31.65;19.92;;;;;;;15.90;76.18;100615.28;1809372;77;20980;-56
2021/11/03 08:52:13;;;;;;;29.77;20.37;;;;;;;15.92;75.92;100617.41;1811252;77;21040;-57
2021/11/03 08:54:45;;;;;;;28.20;19.62;;;;;;;15.94;75.53;100612.78;1809828;77;22552;-57
2021/11/03 08:57:14;;;;;;;27.50;18.02;;;;;;;15.98;75.64;100618.88;1810564;77;21039;-56
2021/11/03 08:59:42;;;;;;;29.92;19.35;;;;;;;16.01;75.23;100622.25;1809681;77;21019;-56
2021/11/03 09:02:09;;;;;;;29.18;20.37;;;;;;;16.04;75.04;100625.27;1805924;77;21102;-57
2021/11/03 09:04:38;;;;;;;28.98;18.77;;;;;;;16.11;74.98;100628.48;1808448;77;21486;-56
2021/11/03 09:07:11;;;;;;;28.52;19.52;;;;;;;16.21;74.75;100629.64;1809878;77;21115;-56
2021/11/03 09:09:36;;;;;;;27.15;18.67;;;;;;;16.29;74.33;100627.83;1808225;77;21058;-56
2021/11/03 09:12:06;;;;;;;26.55;18.62;;;;;;;16.31;73.86;100625.90;1782445;77;21117;-56
2021/11/03 09:14:33;;;;;;;25.95;17.92;;;;;;;16.33;73.42;100631.62;1804399;77;21073;-57
2021/11/03 09:16:59;;;;;;;27.73;20.00;;;;;;;16.37;73.00;100631.42;1811245;77;21520;-57
2021/11/03 09:19:27;;;;;;;36.08;21.90;;;;;;;16.40;72.73;100633.94;1812404;77;21094;-57
2021/11/03 09:21:53;;;;;;;33.45;22.67;;;;;;;16.43;73.21;100643.22;1811446;77;21043;-57
2021/11/03 09:24:20;;;;;;;32.60;22.35;;;;;;;16.41;73.67;100640.63;1803945;77;21102;-56
2021/11/03 09:26:48;;;;;;;31.05;21.52;;;;;;;16.40;74.05;100639.34;1809121;77;21011;-59
2021/11/03 09:29:15;;;;;;;32.55;21.25;;;;;;;16.38;73.96;100639.93;1807814;77;21046;-58
2021/11/03 09:31:44;;;;;;;31.15;21.68;;;;;;;16.34;74.07;100640.59;1802894;77;21631;-57
2021/11/03 09:34:12;;;;;;;35.33;22.37;;;;;;;16.29;74.19;100640.89;1809158;77;21034;-56
2021/11/03 09:36:42;;;;;;;34.85;23.05;;;;;;;16.29;74.15;100646.30;1810086;77;21110;-59
2021/11/03 09:39:11;;;;;;;30.23;21.20;;;;;;;16.33;73.95;100635.67;1809952;77;21051;-59
2021/11/03 09:41:47;;;;;;;33.18;22.40;;;;;;;16.38;73.96;100640.81;1806403;77;21070;-57
2021/11/03 09:44:28;;;;;;;32.38;21.97;;;;;;;16.42;74.01;100641.47;1811313;77;21156;-57
2021/11/03 09:47:16;;;;;;;31.07;21.25;;;;;;;16.45;73.92;100651.64;1802457;77;21421;-56
2021/11/03 09:49:56;;;;;;;31.97;20.88;;;;;;;16.47;73.55;100648.84;1783677;77;20967;-57
2021/11/03 09:52:42;;;;;;;30.50;20.23;;;;;;;16.49;73.46;100656.86;1804336;77;21117;-58
2021/11/03 09:55:23;;;;;;;28.07;19.52;;;;;;;16.51;73.52;100659.87;1799027;77;21263;-56
2021/11/03 09:58:00;;;;;;;36.88;21.62;;;;;;;16.57;73.05;100658.59;1803213;77;21362;-56
2021/11/03 10:00:41;;;;;;;31.75;20.25;;;;;;;16.57;72.66;100663.54;1804843;77;21144;-57
2021/11/03 10:03:40;;;;;;;29.48;20.05;;;;;;;16.59;72.41;100656.20;1797265;77;21153;-56
2021/11/03 10:06:13;;;;;;;31.55;21.02;;;;;;;16.61;72.39;100654.76;1807667;77;21621;-57
2021/11/03 10:08:45;;;;;;;32.25;21.37;;;;;;;16.67;72.18;100658.43;1808743;77;21029;-56
2021/11/03 10:11:28;;;;;;;30.12;20.57;;;;;;;16.69;71.77;100658.31;1809911;77;21108;-57
2021/11/03 10:14:00;;;;;;;28.23;20.60;;;;;;;16.66;72.08;100658.51;1791997;77;21295;-65
2021/11/03 10:16:42;;;;;;;31.48;19.42;;;;;;;16.74;71.67;100662.98;1803717;77;20991;-66
2021/11/03 10:19:21;;;;;;;25.85;18.37;;;;;;;16.74;71.65;100662.98;1803592;77;21062;-66
2021/11/03 10:21:56;;;;;;;35.63;19.92;;;;;;;16.75;71.71;100666.93;1805045;77;21519;-65
2021/11/03 10:24:31;;;;;;;30.15;19.17;;;;;;;16.83;71.54;100658.33;1805960;77;25414;-66
2021/11/03 10:27:11;;;;;;;27.10;18.62;;;;;;;16.86;71.37;100664.05;1812984;77;21106;-65
2021/11/03 10:29:42;;;;;;;28.32;19.65;;;;;;;16.91;70.92;100660.56;1805876;77;21003;-64
2021/11/03 10:32:39;;;;;;;26.52;18.45;;;;;;;16.90;70.32;100662.38;1810526;77;21300;-64
2021/11/03 10:35:15;;;;;;;;;;;;;;;16.88;70.55;100665.67;1785833;79;21106;-66
2021/11/03 10:37:45;;;;;;;27.75;17.95;;;;;;;16.95;70.45;100668.02;1804190;77;21051;-64
2021/11/03 10:40:42;;;;;;;27.82;19.00;;;;;;;16.94;69.91;100660.86;1804172;77;21011;-65
2021/11/03 10:43:33;;;;;;;27.05;18.57;;;;;;;16.88;69.78;100668.88;1800131;77;21331;-65
2021/11/03 10:46:26;;;;;;;25.27;17.98;;;;;;;16.83;69.76;100662.39;1759958;79;21571;-57
2021/11/03 10:49:23;;;;;;;25.57;17.33;;;;;;;16.86;69.81;100665.41;1801657;77;21421;-65
2021/11/03 10:52:21;;;;;;;26.37;17.20;;;;;;;16.89;69.76;100666.56;1783700;77;21818;-64
2021/11/03 10:54:52;;;;;;;26.57;17.40;;;;;;;16.85;69.22;100663.16;1802206;76;21082;-58
2021/11/03 10:57:42;;;;;;;24.20;15.68;;;;;;;16.85;69.51;100666.38;1800680;77;21046;-57
2021/11/03 11:00:26;;;;;;;24.12;16.23;;;;;;;16.86;69.03;100670.31;1801910;77;21672;-65
2021/11/03 11:02:58;;;;;;;23.42;15.08;;;;;;;16.86;68.85;100668.96;1799345;77;21749;-57
2021/11/03 11:05:27;;;;;;;23.98;15.13;;;;;;;16.90;68.61;100671.86;1796955;77;21071;-58
2021/11/03 11:08:24;;;;;;;20.02;14.98;;;;;;;16.95;68.07;100682.41;1799427;77;20923;-57
2021/11/03 11:11:09;;;;;;;18.37;14.18;;;;;;;16.95;67.50;100681.55;1747807;77;20921;-57
2021/11/03 11:13:46;;;;;;;23.85;15.18;;;;;;;17.00;67.14;100692.99;1774780;78;20964;-65
2021/11/03 11:16:20;;;;;;;21.07;14.47;;;;;;;17.05;66.68;100694.92;1804226;77;21384;-66
2021/11/03 11:19:08;;;;;;;23.42;14.38;;;;;;;17.06;66.38;100698.02;1808822;77;21540;-57
2021/11/03 11:21:45;;;;;;;23.18;15.35;;;;;;;17.09;66.49;100704.59;1822529;77;20861;-57